Time;durP1;ratioP1;P1;durP2;ratioP2;P2;SDS_P1;SDS_P2;PMS_P1;PMS_P2;Temp;Humidity;BMP_temperature;BMP_pressure;BME280_temperature;BME280_humidity;BME280_pressure;Samples;Min_cycle;Max_cycle;Signal;HPM_P1;HPM_P2
2023/06/21 00:00:31;;;;;;;16.63;14.90;;;19.90;99.90;;;;;;5012181;28;20053;-72
2023/06/21 00:03:00;;;;;;;21.00;17.38;;;19.90;99.90;;;;;;5013041;28;20064;-71
2023/06/21 00:05:26;;;;;;;18.00;16.20;;;19.90;99.90;;;;;;5013156;28;20128;-71
2023/06/21 00:07:54;;;;;;;18.05;15.98;;;19.90;99.90;;;;;;5013011;28;20121;-70
2023/06/21 00:10:23;;;;;;;19.33;17.33;;;19.80;99.90;;;;;;5013055;28;20049;-71
2023/06/21 00:12:53;;;;;;;21.50;19.20;;;19.80;99.90;;;;;;5012960;28;20048;-71
2023/06/21 00:15:20;;;;;;;19.00;16.70;;;19.80;99.90;;;;;;5012973;28;20053;-71
2023/06/21 00:17:46;;;;;;;18.00;16.20;;;19.80;99.90;;;;;;4995651;28;20053;-71
2023/06/21 00:25:26;;;;;;;20.98;18.75;;;19.80;99.90;;;;;;5500309;22;20677;-73
2023/06/21 00:27:52;;;;;;;21.20;18.15;;;19.80;99.90;;;;;;5044808;28;20049;-72
2023/06/21 00:30:17;;;;;;;23.85;19.38;;;19.80;99.90;;;;;;5050951;28;20133;-71
2023/06/21 00:32:43;;;;;;;21.92;19.65;;;19.80;99.90;;;;;;5052247;28;20052;-71
2023/06/21 00:35:09;;;;;;;18.63;16.67;;;19.80;99.90;;;;;;5035420;28;20040;-71
2023/06/21 00:37:37;;;;;;;21.75;19.45;;;19.80;99.90;;;;;;5052654;28;20048;-72
2023/06/21 00:40:07;;;;;;;19.30;17.08;;;19.80;99.90;;;;;;5052411;28;20076;-72
2023/06/21 00:42:33;;;;;;;22.73;20.20;;;19.80;99.90;;;;;;5051314;28;20088;-72
2023/06/21 00:44:59;;;;;;;21.67;19.42;;;19.80;99.90;;;;;;5052584;28;20053;-72
2023/06/21 00:47:24;;;;;;;19.20;17.15;;;19.80;99.90;;;;;;5052019;28;20044;-72
2023/06/21 00:49:50;;;;;;;22.48;20.08;;;19.80;99.90;;;;;;5052305;28;20049;-70
2023/06/21 00:52:17;;;;;;;21.55;19.25;;;19.80;99.90;;;;;;5052590;28;20489;-72
2023/06/21 00:54:43;;;;;;;23.80;19.77;;;19.80;99.90;;;;;;5052165;28;20053;-73
2023/06/21 00:57:11;;;;;;;21.88;17.70;;;19.80;99.90;;;;;;5052274;28;20053;-70
2023/06/21 00:59:37;;;;;;;21.52;19.33;;;19.80;99.90;;;;;;5051528;28;20421;-70
2023/06/21 01:02:03;;;;;;;22.08;19.17;;;19.80;99.90;;;;;;5052668;28;20179;-70
2023/06/21 01:04:31;;;;;;;20.08;18.02;;;19.80;99.90;;;;;;5052767;28;20041;-70
2023/06/21 01:07:36;;;;;;;23.08;19.23;;;19.80;99.90;;;;;;5052174;28;20232;-70
2023/06/21 01:10:08;;;;;;;24.38;19.50;;;19.80;99.90;;;;;;5052522;28;20052;-70
2023/06/21 01:12:48;;;;;;;19.83;17.10;;;19.80;99.90;;;;;;5052643;28;20049;-70
2023/06/21 01:15:24;;;;;;;16.85;14.45;;;19.80;99.90;;;;;;5052539;28;20484;-70
2023/06/21 01:17:52;;;;;;;20.70;18.55;;;19.80;99.90;;;;;;5052272;28;20037;-70
2023/06/21 01:20:25;;;;;;;16.27;14.55;;;19.80;99.90;;;;;;5052337;28;20392;-70
2023/06/21 01:23:03;;;;;;;19.40;16.20;;;19.80;99.90;;;;;;5052104;28;20057;-70
2023/06/21 01:26:06;;;;;;;16.98;15.07;;;19.90;99.90;;;;;;5052472;28;20488;-70
2023/06/21 01:28:51;;;;;;;19.30;16.70;;;19.80;99.90;;;;;;5054739;28;20049;-70
2023/06/21 01:31:17;;;;;;;21.48;16.52;;;19.80;99.90;;;;;;5055806;28;20045;-70
2023/06/21 01:33:44;;;;;;;21.63;17.33;;;19.80;99.90;;;;;;5055372;28;20102;-70
2023/06/21 01:36:10;;;;;;;21.83;19.48;;;19.80;99.90;;;;;;5054455;28;20346;-70
2023/06/21 01:38:36;;;;;;;21.63;19.33;;;19.80;99.90;;;;;;5055521;28;20041;-70
2023/06/21 01:41:02;;;;;;;20.02;16.48;;;20.20;99.90;;;;;;5056161;28;20052;-70
2023/06/21 01:43:30;;;;;;;18.35;15.90;;;19.80;99.90;;;;;;5055649;28;20507;-70
2023/06/21 01:45:58;;;;;;;20.40;17.10;;;19.70;99.90;;;;;;5055668;28;20045;-70
2023/06/21 01:48:24;;;;;;;20.67;17.98;;;19.80;99.90;;;;;;5055678;28;20048;-70
2023/06/21 01:50:51;;;;;;;20.05;17.60;;;19.70;99.90;;;;;;5055333;28;20045;-70
2023/06/21 01:53:18;;;;;;;18.90;16.63;;;19.70;99.90;;;;;;5055380;28;20049;-70
2023/06/21 01:55:49;;;;;;;18.95;16.77;;;19.70;99.90;;;;;;5055308;28;20115;-70
2023/06/21 01:58:15;;;;;;;18.77;16.02;;;19.70;99.90;;;;;;5055729;28;20099;-70
2023/06/21 02:00:43;;;;;;;21.48;16.17;;;19.70;99.90;;;;;;5055330;28;20111;-70
2023/06/21 02:03:10;;;;;;;18.27;16.30;;;19.70;99.90;;;;;;5055046;28;20545;-70
2023/06/21 02:05:37;;;;;;;19.08;17.05;;;19.60;99.90;;;;;;5055024;28;20056;-70
2023/06/21 02:08:04;;;;;;;21.10;18.75;;;19.60;99.90;;;;;;5054069;28;20045;-72
2023/06/21 02:10:31;;;;;;;21.35;17.77;;;19.60;99.90;;;;;;5055011;28;20369;-70
2023/06/21 02:12:57;;;;;;;22.60;20.17;;;19.60;99.90;;;;;;5054929;28;20473;-70
2023/06/21 02:15:23;;;;;;;23.60;21.00;;;19.50;99.90;;;;;;5037346;28;20060;-70
2023/06/21 02:17:51;;;;;;;21.77;19.27;;;19.50;99.90;;;;;;5054934;28;20428;-70
2023/06/21 02:20:19;;;;;;;22.33;19.05;;;19.50;99.90;;;;;;5054623;28;20400;-70
2023/06/21 02:22:46;;;;;;;23.50;20.13;;;19.50;99.90;;;;;;5055099;28;20447;-71
2023/06/21 02:25:13;;;;;;;23.00;20.52;;;19.50;99.90;;;;;;5054674;28;20053;-70
2023/06/21 02:27:39;;;;;;;19.08;15.98;;;19.50;99.90;;;;;;5053555;28;20045;-71
2023/06/21 02:30:06;;;;;;;24.42;20.38;;;19.50;99.90;;;;;;5054717;28;20125;-70
2023/06/21 02:32:31;;;;;;;22.17;17.83;;;19.50;99.90;;;;;;5053415;28;20053;-71
2023/06/21 02:34:57;;;;;;;27.92;22.35;;;19.40;99.90;;;;;;5053200;28;20094;-71
2023/06/21 02:37:23;;;;;;;25.70;22.67;;;19.40;99.90;;;;;;5055159;28;20049;-70
2023/06/21 02:39:48;;;;;;;26.80;23.42;;;19.40;99.90;;;;;;5052991;28;20347;-71
2023/06/21 02:42:14;;;;;;;27.38;23.35;;;19.40;99.90;;;;;;5054348;28;20040;-71
2023/06/21 02:44:41;;;;;;;29.08;24.65;;;19.30;99.90;;;;;;5054080;28;20041;-70
2023/06/21 02:47:07;;;;;;;32.22;26.25;;;19.30;99.90;;;;;;5054520;28;20110;-71
2023/06/21 02:49:36;;;;;;;30.73;25.35;;;19.30;99.90;;;;;;5054160;28;20052;-70
2023/06/21 02:52:03;;;;;;;32.72;25.10;;;19.30;99.90;;;;;;5054255;28;20063;-70
2023/06/21 02:54:29;;;;;;;29.00;25.45;;;19.30;99.90;;;;;;5053341;28;20047;-71
2023/06/21 02:56:55;;;;;;;31.00;24.48;;;19.30;99.90;;;;;;5054575;28;20053;-71
2023/06/21 02:59:21;;;;;;;35.83;28.45;;;19.30;99.90;;;;;;5054317;28;20052;-71
2023/06/21 03:01:47;;;;;;;29.60;23.15;;;19.30;99.90;;;;;;5054025;28;20041;-71
2023/06/21 03:04:18;;;;;;;35.40;28.83;;;19.30;99.90;;;;;;5054013;28;20053;-71
2023/06/21 03:06:44;;;;;;;34.47;28.95;;;19.30;99.90;;;;;;5054490;28;20084;-71
2023/06/21 03:09:10;;;;;;;32.47;26.48;;;19.30;99.90;;;;;;5053851;28;20489;-72
2023/06/21 03:11:36;;;;;;;38.30;30.67;;;19.20;99.90;;;;;;5053795;28;20041;-71
2023/06/21 03:14:02;;;;;;;38.33;31.23;;;19.30;99.90;;;;;;5053889;28;20385;-71
2023/06/21 03:16:27;;;;;;;37.38;30.25;;;19.20;99.90;;;;;;5053960;28;20045;-72
2023/06/21 03:18:53;;;;;;;30.42;25.13;;;19.10;99.90;;;;;;5054275;28;20072;-71
2023/06/21 03:21:19;;;;;;;40.72;31.52;;;19.10;99.90;;;;;;5053688;28;20385;-71
2023/06/21 03:23:44;;;;;;;38.38;29.90;;;19.10;99.90;;;;;;5053548;28;20045;-72
2023/06/21 03:26:10;;;;;;;33.25;28.30;;;19.10;99.90;;;;;;5052051;28;20067;-71
2023/06/21 03:28:36;;;;;;;36.58;29.75;;;19.10;99.90;;;;;;5053859;28;20084;-72
2023/06/21 03:31:01;;;;;;;44.00;35.80;;;19.10;99.90;;;;;;5053760;28;20078;-72
2023/06/21 03:33:28;;;;;;;43.97;33.53;;;19.20;99.90;;;;;;5053400;28;20548;-71
2023/06/21 03:35:54;;;;;;;44.95;32.92;;;19.20;99.90;;;;;;5053643;28;20095;-71
2023/06/21 03:38:19;;;;;;;43.95;34.15;;;19.20;99.90;;;;;;5053234;28;20057;-71
2023/06/21 03:40:45;;;;;;;42.13;33.30;;;19.20;99.90;;;;;;5053596;28;20048;-71
2023/06/21 03:43:13;;;;;;;49.28;36.08;;;19.20;99.90;;;;;;5053381;28;20056;-72
2023/06/21 03:45:39;;;;;;;35.58;27.65;;;19.20;99.90;;;;;;5053256;28;20080;-73
2023/06/21 03:48:05;;;;;;;47.65;35.65;;;19.20;99.90;;;;;;5053159;28;20519;-73
2023/06/21 03:50:32;;;;;;;43.95;31.80;;;19.30;99.90;;;;;;5052753;28;20141;-72
2023/06/21 03:52:57;;;;;;;48.13;36.33;;;19.20;99.90;;;;;;5035180;28;20052;-72
2023/06/21 03:55:23;;;;;;;49.20;36.85;;;19.20;99.90;;;;;;5053081;28;20045;-73
2023/06/21 03:57:49;;;;;;;47.20;37.20;;;19.20;99.90;;;;;;5052937;28;20129;-72
2023/06/21 04:00:15;;;;;;;38.85;29.33;;;19.20;99.90;;;;;;5051264;28;20052;-74
2023/06/21 04:02:41;;;;;;;46.35;35.40;;;19.30;99.90;;;;;;5051749;28;20521;-73
2023/06/21 04:05:10;;;;;;;44.60;34.88;;;19.30;99.90;;;;;;5053501;28;20075;-72
2023/06/21 04:07:37;;;;;;;52.92;38.35;;;19.30;99.90;;;;;;5052814;28;20056;-72
2023/06/21 04:10:03;;;;;;;43.78;33.53;;;19.20;99.90;;;;;;5052886;28;20049;-74
2023/06/21 04:12:29;;;;;;;48.33;38.58;;;19.30;99.90;;;;;;5052753;28;20069;-72
2023/06/21 04:14:56;;;;;;;44.83;34.70;;;19.20;99.90;;;;;;5051812;28;20485;-72
2023/06/21 04:17:22;;;;;;;45.42;30.52;;;19.30;99.90;;;;;;5051558;28;20053;-73
2023/06/21 04:19:47;;;;;;;39.50;31.95;;;19.30;99.90;;;;;;5052001;28;20052;-73
2023/06/21 04:22:13;;;;;;;46.10;34.47;;;19.20;99.90;;;;;;5052450;28;20094;-72
2023/06/21 04:25:18;;;;;;;34.67;26.85;;;19.20;99.90;;;;;;5052319;28;20496;-73
2023/06/21 04:27:46;;;;;;;45.17;35.53;;;19.20;99.90;;;;;;5052643;28;20045;-73
2023/06/21 04:30:12;;;;;;;43.50;34.65;;;19.20;99.90;;;;;;5052495;28;20047;-72
2023/06/21 04:32:46;;;;;;;45.47;32.53;;;19.20;99.90;;;;;;5051529;28;20139;-71
2023/06/21 04:35:15;;;;;;;;;;;19.10;99.90;;;;;;5051521;28;20048;-75
2023/06/21 04:37:45;;;;;;;47.63;33.83;;;19.80;99.90;;;;;;5052357;28;20015;-71
2023/06/21 04:40:18;;;;;;;45.17;34.15;;;19.40;99.90;;;;;;5052339;28;20049;-71
2023/06/21 04:42:54;;;;;;;45.22;33.88;;;20.40;99.90;;;;;;5051151;28;20059;-71
2023/06/21 04:45:21;;;;;;;42.22;35.17;;;19.40;99.90;;;;;;5052125;28;20471;-71
2023/06/21 04:47:47;;;;;;;42.95;34.17;;;19.40;99.90;;;;;;5051849;28;20468;-71
2023/06/21 04:50:14;;;;;;;47.83;34.95;;;19.50;99.90;;;;;;5052557;28;20088;-72
2023/06/21 04:52:39;;;;;;;44.58;33.03;;;19.50;99.90;;;;;;5050829;28;20097;-71
2023/06/21 04:55:06;;;;;;;44.00;35.05;;;19.50;99.90;;;;;;5051999;28;20072;-71
2023/06/21 04:57:33;;;;;;;39.60;30.98;;;19.60;99.90;;;;;;5051304;28;20045;-71
2023/06/21 04:59:59;;;;;;;39.63;30.85;;;19.60;99.90;;;;;;5051835;28;20044;-71
2023/06/21 05:02:25;;;;;;;44.95;33.88;;;19.60;99.90;;;;;;5052587;28;20109;-71
2023/06/21 05:04:51;;;;;;;45.83;33.72;;;19.60;99.90;;;;;;5055940;28;20088;-72
2023/06/21 05:07:17;;;;;;;42.22;32.40;;;19.70;99.90;;;;;;5055801;28;20111;-71
2023/06/21 05:09:43;;;;;;;39.13;30.45;;;19.70;99.90;;;;;;5055087;28;20473;-72
2023/06/21 05:12:09;;;;;;;39.63;32.53;;;19.70;99.90;;;;;;5054296;28;20495;-71
2023/06/21 05:14:35;;;;;;;41.92;31.05;;;19.70;99.90;;;;;;5055495;28;20113;-71
2023/06/21 05:17:00;;;;;;;37.50;26.77;;;19.70;99.90;;;;;;5055970;28;20056;-71
2023/06/21 05:19:26;;;;;;;39.63;27.23;;;19.80;99.90;;;;;;5056150;28;20445;-71
2023/06/21 05:21:52;;;;;;;37.90;29.92;;;19.90;99.90;;;;;;5055378;28;20048;-71
2023/06/21 05:24:17;;;;;;;38.17;29.40;;;20.00;99.90;;;;;;5053978;28;20080;-72
2023/06/21 05:26:44;;;;;;;37.90;28.42;;;20.00;99.90;;;;;;5053766;28;20044;-71
2023/06/21 05:29:13;;;;;;;35.55;26.90;;;20.10;99.90;;;;;;5055606;28;20128;-72
2023/06/21 05:31:42;;;;;;;36.35;26.52;;;20.10;99.90;;;;;;5055242;28;20526;-71
2023/06/21 05:34:09;;;;;;;29.83;22.25;;;20.10;99.90;;;;;;5054305;28;20070;-72
2023/06/21 05:36:34;;;;;;;34.30;27.58;;;20.20;99.90;;;;;;5055079;28;20048;-71
2023/06/21 05:39:00;;;;;;;32.35;25.60;;;20.20;99.90;;;;;;5037478;28;20049;-71
2023/06/21 05:41:26;;;;;;;29.77;22.20;;;20.30;99.90;;;;;;5055169;28;20044;-71
2023/06/21 05:43:52;;;;;;;31.05;21.70;;;20.40;99.90;;;;;;5054997;28;20522;-71
2023/06/21 05:46:18;;;;;;;28.17;20.00;;;20.40;99.90;;;;;;5054936;28;20087;-71
2023/06/21 05:48:44;;;;;;;30.63;21.67;;;20.50;99.90;;;;;;5054026;28;20037;-70
2023/06/21 05:51:10;;;;;;;29.75;22.65;;;20.50;99.90;;;;;;5055089;28;20107;-70
2023/06/21 05:53:35;;;;;;;26.05;20.58;;;20.60;99.90;;;;;;5054753;28;20055;-71
2023/06/21 05:56:01;;;;;;;27.52;20.20;;;20.70;99.90;;;;;;5055055;28;20469;-71
2023/06/21 05:58:27;;;;;;;28.95;21.02;;;20.80;99.90;;;;;;5054098;28;20063;-72
2023/06/21 06:00:53;;;;;;;25.23;18.88;;;20.80;99.90;;;;;;5054666;28;20422;-72
2023/06/21 06:03:19;;;;;;;25.15;18.10;;;20.90;99.90;;;;;;5054685;28;20052;-72
2023/06/21 06:05:45;;;;;;;23.58;18.33;;;20.90;99.90;;;;;;5037017;28;20056;-72
2023/06/21 06:08:11;;;;;;;24.95;17.98;;;20.90;99.90;;;;;;5053405;28;20049;-74
2023/06/21 06:10:37;;;;;;;23.27;17.40;;;21.00;99.90;;;;;;5054878;28;20086;-72
2023/06/21 06:13:02;;;;;;;23.13;16.85;;;21.10;99.90;;;;;;5054529;28;20087;-73
2023/06/21 06:15:29;;;;;;;19.63;15.25;;;21.10;99.90;;;;;;5053608;28;20040;-73
2023/06/21 06:17:54;;;;;;;25.90;15.32;;;21.30;99.90;;;;;;5054588;28;20130;-73
2023/06/21 06:20:20;;;;;;;22.02;15.30;;;21.70;99.90;;;;;;5054828;28;20437;-73
2023/06/21 06:22:47;;;;;;;22.27;14.45;;;22.40;99.90;;;;;;5053934;28;20044;-73
2023/06/21 06:25:13;;;;;;;15.68;12.55;;;23.20;99.90;;;;;;5054571;28;20118;-74
2023/06/21 06:27:38;;;;;;;16.10;12.63;;;23.70;99.90;;;;;;5054393;28;20131;-73
2023/06/21 06:30:05;;;;;;;20.77;11.40;;;24.40;99.90;;;;;;5052910;28;20045;-69
2023/06/21 06:32:31;;;;;;;17.27;13.43;;;25.00;99.90;;;;;;5053456;28;20056;-69
2023/06/21 06:34:56;;;;;;;16.25;11.57;;;25.50;99.90;;;;;;5054426;28;20045;-69
2023/06/21 06:37:24;;;;;;;14.43;10.38;;;25.60;99.90;;;;;;5054200;28;20472;-73
2023/06/21 06:39:53;;;;;;;11.68;9.57;;;25.80;99.90;;;;;;5054165;28;20103;-73
2023/06/21 06:42:18;;;;;;;11.98;10.00;;;26.00;99.90;;;;;;5054128;28;20128;-74
2023/06/21 06:44:44;;;;;;;13.57;10.68;;;25.90;99.90;;;;;;5054052;28;20088;-72
2023/06/21 06:47:11;;;;;;;12.43;10.15;;;25.90;99.90;;;;;;5054118;28;20218;-72
2023/06/21 06:49:37;;;;;;;14.55;9.52;;;26.00;99.90;;;;;;5054067;28;20047;-73
2023/06/21 06:52:03;;;;;;;16.45;9.20;;;26.30;99.90;;;;;;5052804;28;20053;-73
2023/06/21 06:54:28;;;;;;;13.55;9.10;;;27.00;99.90;;;;;;5036498;28;20048;-73
2023/06/21 06:56:54;;;;;;;11.55;8.88;;;27.20;99.90;;;;;;5054032;28;20049;-73
2023/06/21 06:59:20;;;;;;;11.52;8.35;;;27.50;99.90;;;;;;5052867;28;20041;-73
2023/06/21 07:01:45;;;;;;;12.38;8.52;;;27.90;99.90;;;;;;5054089;28;20488;-73
2023/06/21 07:04:11;;;;;;;12.65;8.73;;;27.70;99.90;;;;;;5054047;28;20076;-73
2023/06/21 07:06:37;;;;;;;12.23;8.10;;;27.90;99.90;;;;;;5053871;28;20521;-73
2023/06/21 07:09:03;;;;;;;10.32;8.13;;;28.10;99.90;;;;;;5053874;28;20493;-73
2023/06/21 07:11:29;;;;;;;9.15;7.50;;;27.90;99.80;;;;;;5054259;28;20120;-74
2023/06/21 07:13:55;;;;;;;9.98;8.20;;;28.10;99.40;;;;;;5053873;28;20437;-73
2023/06/21 07:16:20;;;;;;;9.45;6.75;;;28.10;99.50;;;;;;5053145;28;20063;-74
2023/06/21 07:18:46;;;;;;;10.35;6.88;;;28.10;99.30;;;;;;5052068;28;20045;-75
2023/06/21 07:21:12;;;;;;;7.88;5.80;;;27.80;98.90;;;;;;5053896;28;20045;-74
2023/06/21 07:23:38;;;;;;;10.57;7.00;;;28.10;98.70;;;;;;5053275;28;20044;-74
2023/06/21 07:26:04;;;;;;;9.88;7.60;;;28.50;98.20;;;;;;5051988;28;20060;-74
2023/06/21 07:28:30;;;;;;;6.75;5.30;;;29.00;98.10;;;;;;5053075;28;20204;-73
2023/06/21 07:30:59;;;;;;;8.93;5.82;;;29.20;97.40;;;;;;5052367;28;20103;-73
2023/06/21 07:33:25;;;;;;;8.57;6.35;;;29.50;97.30;;;;;;5053500;28;20487;-74
2023/06/21 07:35:50;;;;;;;7.45;6.22;;;29.70;96.70;;;;;;5053154;28;20060;-74
2023/06/21 07:38:16;;;;;;;6.80;6.10;;;29.40;95.60;;;;;;5053553;28;20379;-75
2023/06/21 07:40:42;;;;;;;8.00;5.90;;;29.30;94.40;;;;;;5053110;28;20499;-74
2023/06/21 07:43:08;;;;;;;10.23;6.28;;;29.00;95.40;;;;;;5052659;28;20056;-75
2023/06/21 07:45:33;;;;;;;6.90;5.60;;;29.00;94.30;;;;;;5051969;28;20057;-74
2023/06/21 07:47:59;;;;;;;6.20;5.43;;;29.20;95.20;;;;;;5051801;28;20060;-74
2023/06/21 07:50:27;;;;;;;6.85;5.40;;;29.60;95.30;;;;;;5053135;28;20049;-75
2023/06/21 07:52:52;;;;;;;8.68;6.32;;;29.60;95.20;;;;;;5052904;28;20044;-75
2023/06/21 07:55:18;;;;;;;11.73;6.43;;;29.80;95.10;;;;;;5052889;28;20052;-74
2023/06/21 07:57:44;;;;;;;6.20;5.60;;;29.80;93.30;;;;;;5052680;28;20048;-74
2023/06/21 08:00:11;;;;;;;6.93;6.13;;;30.00;94.60;;;;;;5051627;28;20088;-75
2023/06/21 08:02:37;;;;;;;8.07;5.53;;;30.10;93.60;;;;;;5052725;28;20056;-74
2023/06/21 08:05:06;;;;;;;8.75;5.85;;;30.40;93.80;;;;;;5051679;28;20063;-75
2023/06/21 08:07:32;;;;;;;7.93;6.03;;;30.60;93.70;;;;;;5052766;28;20044;-73
2023/06/21 08:09:58;;;;;;;6.57;5.88;;;30.70;93.30;;;;;;5052508;28;20091;-75
2023/06/21 08:12:23;;;;;;;6.85;4.80;;;30.40;92.80;;;;;;5052484;28;20049;-75
2023/06/21 08:14:49;;;;;;;6.00;5.18;;;30.90;93.10;;;;;;5053054;28;20463;-75
2023/06/21 08:17:15;;;;;;;8.48;7.03;;;31.20;92.80;;;;;;5052734;28;20136;-75
2023/06/21 08:19:41;;;;;;;6.45;5.75;;;31.40;92.30;;;;;;5051623;28;20041;-75
2023/06/21 08:22:06;;;;;;;7.75;5.78;;;31.60;92.40;;;;;;5052467;28;20067;-75
2023/06/21 08:24:34;;;;;;;6.97;5.90;;;30.80;91.90;;;;;;5050861;28;20041;-74
2023/06/21 08:26:59;;;;;;;6.32;4.68;;;29.80;92.20;;;;;;5051251;28;20053;-74
2023/06/21 08:29:25;;;;;;;7.85;5.80;;;30.20;92.50;;;;;;5052114;28;20052;-75
2023/06/21 08:31:51;;;;;;;7.03;5.13;;;30.20;92.20;;;;;;5052452;28;20049;-75
2023/06/21 08:34:16;;;;;;;8.15;5.22;;;30.30;92.40;;;;;;5051366;28;20473;-75
2023/06/21 08:36:42;;;;;;;6.53;5.28;;;30.60;92.30;;;;;;5051329;28;20036;-75
2023/06/21 08:39:08;;;;;;;6.13;5.53;;;30.50;91.90;;;;;;5052303;28;20102;-74
2023/06/21 08:41:39;;;;;;;5.72;4.93;;;30.30;91.70;;;;;;5052001;28;20127;-75
2023/06/21 08:44:05;;;;;;;6.85;4.53;;;30.40;91.10;;;;;;5052009;28;20052;-74
2023/06/21 08:46:34;;;;;;;6.95;6.18;;;31.00;92.10;;;;;;5050800;28;20056;-74
2023/06/21 08:49:07;;;;;;;6.15;4.70;;;30.90;90.70;;;;;;5051865;28;20045;-75
2023/06/21 08:51:38;;;;;;;5.47;4.97;;;30.60;91.60;;;;;;5051606;28;20435;-75
2023/06/21 08:54:07;;;;;;;6.70;5.77;;;30.00;91.70;;;;;;5052242;28;20115;-74
2023/06/21 08:56:43;;;;;;;7.65;5.53;;;29.40;90.90;;;;;;5051853;28;20288;-75
2023/06/21 08:59:17;;;;;;;4.78;4.10;;;29.40;91.30;;;;;;5052254;28;20045;-74
2023/06/21 09:02:13;;;;;;;5.63;4.50;;;29.20;91.70;;;;;;5052508;28;20045;-74
2023/06/21 09:04:45;;;;;;;6.28;5.30;;;29.90;91.70;;;;;;5046555;28;20057;-75
2023/06/21 09:07:12;;;;;;;7.23;4.83;;;30.10;92.10;;;;;;5052217;28;20055;-74
2023/06/21 09:09:39;;;;;;;7.80;5.40;;;29.60;92.10;;;;;;5052010;28;20095;-74
2023/06/21 09:12:08;;;;;;;5.60;4.30;;;29.30;92.00;;;;;;5051738;28;20053;-74
2023/06/21 09:14:34;;;;;;;6.55;4.30;;;29.30;92.40;;;;;;5051790;28;20044;-74
2023/06/21 09:17:00;;;;;;;7.80;4.43;;;29.20;92.50;;;;;;5052421;28;20048;-74
2023/06/21 09:19:27;;;;;;;5.70;4.13;;;29.40;92.60;;;;;;5050682;28;20484;-74
2023/06/21 09:21:55;;;;;;;5.40;4.10;;;29.80;92.20;;;;;;5051513;28;20175;-75
2023/06/21 09:24:21;;;;;;;6.65;3.80;;;30.30;92.90;;;;;;5051541;28;20068;-74
2023/06/21 09:26:47;;;;;;;5.68;4.28;;;30.60;92.80;;;;;;5050094;28;20576;-74
2023/06/21 09:29:15;;;;;;;4.82;4.20;;;30.70;92.00;;;;;;5051450;28;20048;-74
2023/06/21 09:31:41;;;;;;;5.78;4.18;;;30.90;91.50;;;;;;5051566;28;20049;-75
2023/06/21 09:34:06;;;;;;;4.47;3.95;;;31.10;91.90;;;;;;5050636;28;20450;-74
2023/06/21 09:36:32;;;;;;;5.53;3.83;;;31.30;91.70;;;;;;5051544;28;20059;-74
2023/06/21 09:39:08;;;;;;;6.80;4.30;;;31.50;92.00;;;;;;5050541;28;20033;-74
2023/06/21 09:41:34;;;;;;;6.80;3.97;;;31.30;91.80;;;;;;5051879;28;20049;-74
2023/06/21 09:44:00;;;;;;;4.70;4.25;;;31.10;92.00;;;;;;5051372;28;20041;-74
2023/06/21 09:46:26;;;;;;;7.10;5.07;;;31.50;92.40;;;;;;5050501;28;20057;-73
2023/06/21 09:48:52;;;;;;;5.72;3.40;;;31.10;91.60;;;;;;5052817;28;20122;-74
2023/06/21 09:51:23;;;;;;;6.07;3.00;;;30.90;91.80;;;;;;5055359;28;20461;-74
2023/06/21 09:53:50;;;;;;;3.95;3.47;;;30.70;90.40;;;;;;5055692;28;20056;-74
2023/06/21 09:56:18;;;;;;;4.70;3.13;;;30.70;91.00;;;;;;5054968;28;20044;-74
2023/06/21 09:58:44;;;;;;;4.68;2.92;;;30.70;90.90;;;;;;5054944;28;20087;-74
2023/06/21 10:01:14;;;;;;;4.40;2.72;;;31.20;91.80;;;;;;5054920;28;20057;-74
2023/06/21 10:03:44;;;;;;;4.68;3.35;;;31.40;92.20;;;;;;5055194;28;20127;-73
2023/06/21 10:06:16;;;;;;;4.18;3.50;;;31.40;91.10;;;;;;5054888;28;20048;-73
2023/06/21 10:08:41;;;;;;;;;;;31.50;91.70;;;;;;5055495;28;20084;-74
2023/06/21 10:11:07;;;;;;;6.25;3.05;;;31.00;90.00;;;;;;5054778;28;20258;-73
2023/06/21 10:13:34;;;;;;;6.53;3.63;;;31.20;91.50;;;;;;5054879;28;20518;-73
2023/06/21 10:16:03;;;;;;;4.00;2.72;;;31.40;91.20;;;;;;5054675;28;20060;-74
2023/06/21 10:18:29;;;;;;;4.15;3.17;;;31.50;92.00;;;;;;5053319;28;20048;-75
2023/06/21 10:21:02;;;;;;;3.50;2.33;;;31.60;91.80;;;;;;5053707;28;20418;-74
2023/06/21 10:23:31;;;;;;;2.72;2.53;;;31.60;91.40;;;;;;5054640;28;20049;-73
2023/06/21 10:26:00;;;;;;;4.90;3.22;;;31.40;91.30;;;;;;5054253;28;20064;-72
2023/06/21 10:28:28;;;;;;;5.15;3.00;;;31.30;91.00;;;;;;5053941;28;20053;-74
2023/06/21 10:30:58;;;;;;;3.85;2.75;;;31.00;91.00;;;;;;5054686;28;20114;-72
2023/06/21 10:33:26;;;;;;;2.95;2.70;;;31.00;91.40;;;;;;5054244;28;20041;-72
2023/06/21 10:35:55;;;;;;;3.67;2.42;;;30.80;90.80;;;;;;5054595;28;20084;-73
2023/06/21 10:38:42;;;;;;;5.45;2.67;;;30.70;90.30;;;;;;5054571;28;20053;-72
2023/06/21 10:41:09;;;;;;;4.28;2.58;;;30.80;90.50;;;;;;5054112;28;20049;-73
2023/06/21 10:43:35;;;;;;;3.03;2.67;;;30.90;91.40;;;;;;5054603;28;20057;-73
2023/06/21 10:46:05;;;;;;;2.70;1.92;;;31.00;91.00;;;;;;5054240;28;20124;-72
2023/06/21 10:48:32;;;;;;;4.05;2.60;;;31.10;90.40;;;;;;5052903;28;20047;-72
2023/06/21 10:51:01;;;;;;;2.70;2.33;;;31.00;90.50;;;;;;5053996;28;20060;-72
2023/06/21 10:53:33;;;;;;;3.70;2.65;;;31.00;90.00;;;;;;5054332;28;20044;-73
2023/06/21 10:56:00;;;;;;;3.55;2.80;;;31.10;90.60;;;;;;5053846;28;20045;-72
2023/06/21 10:58:27;;;;;;;3.47;2.33;;;31.00;91.40;;;;;;5053846;28;20071;-72
2023/06/21 11:00:54;;;;;;;4.13;2.63;;;31.20;91.10;;;;;;5052771;28;20391;-73
2023/06/21 11:03:25;;;;;;;2.15;1.65;;;31.20;91.10;;;;;;5053768;28;20055;-73
2023/06/21 11:05:58;;;;;;;2.27;1.83;;;31.10;90.40;;;;;;5052778;28;20049;-73
2023/06/21 11:08:36;;;;;;;2.80;2.03;;;30.90;90.00;;;;;;5053499;28;20048;-73
2023/06/21 11:11:02;;;;;;;3.08;1.92;;;30.80;88.90;;;;;;5052732;28;20114;-72
2023/06/21 11:13:39;;;;;;;3.22;2.40;;;30.70;89.40;;;;;;5053710;28;20457;-73
2023/06/21 11:16:17;;;;;;;2.38;2.17;;;30.70;88.70;;;;;;5053814;28;20048;-73
2023/06/21 11:18:48;;;;;;;3.42;2.10;;;30.80;91.00;;;;;;5035929;28;20112;-73
2023/06/21 11:21:14;;;;;;;3.20;2.20;;;31.00;90.50;;;;;;5052881;28;20056;-72
2023/06/21 11:23:50;;;;;;;3.53;1.90;;;31.20;90.40;;;;;;5053515;28;20045;-72
2023/06/21 11:26:17;;;;;;;3.45;2.00;;;31.10;88.00;;;;;;5053126;28;20067;-72
2023/06/21 11:28:45;;;;;;;2.47;1.88;;;30.90;89.40;;;;;;5053206;28;20041;-73
2023/06/21 11:31:14;;;;;;;2.97;2.45;;;30.50;89.00;;;;;;5053162;28;20058;-72
2023/06/21 11:33:54;;;;;;;3.88;2.45;;;30.20;88.90;;;;;;5053706;28;20041;-73
2023/06/21 11:36:28;;;;;;;3.45;1.55;;;29.60;89.50;;;;;;5052710;28;20077;-72
2023/06/21 11:39:10;;;;;;;2.58;2.05;;;29.40;88.30;;;;;;5053129;28;20457;-73
2023/06/21 11:41:57;;;;;;;2.22;2.03;;;29.20;90.30;;;;;;5053390;28;20132;-71
2023/06/21 11:44:28;;;;;;;2.63;2.10;;;29.30;90.30;;;;;;5053016;28;20076;-71
2023/06/21 11:47:05;;;;;;;2.58;2.30;;;29.40;89.80;;;;;;5053318;28;20589;-72
2023/06/21 11:49:33;;;;;;;3.63;2.65;;;29.60;90.70;;;;;;5052673;28;20473;-72
2023/06/21 11:52:04;;;;;;;2.85;1.90;;;29.70;88.80;;;;;;5051761;28;20143;-72
2023/06/21 11:54:34;;;;;;;2.47;2.13;;;29.70;89.60;;;;;;5052011;28;20049;-71
2023/06/21 11:57:05;;;;;;;2.15;1.95;;;29.50;87.90;;;;;;5051576;28;20047;-72
2023/06/21 11:59:32;;;;;;;3.22;2.30;;;29.30;88.40;;;;;;5053218;28;20084;-71
2023/06/21 12:02:20;;;;;;;3.00;2.25;;;29.30;89.90;;;;;;5051765;28;20406;-72
2023/06/21 12:04:48;;;;;;;2.38;2.00;;;29.40;90.30;;;;;;5052606;28;20048;-72
2023/06/21 12:07:15;;;;;;;2.88;2.00;;;29.40;89.50;;;;;;5051265;28;20115;-71
2023/06/21 12:09:49;;;;;;;3.75;2.67;;;29.20;89.10;;;;;;5052752;28;20455;-71
2023/06/21 12:12:14;;;;;;;4.07;2.63;;;29.00;88.40;;;;;;5051685;28;20045;-72
2023/06/21 12:14:40;;;;;;;3.17;2.50;;;28.70;89.70;;;;;;5052569;28;20047;-71
2023/06/21 12:17:06;;;;;;;3.10;2.55;;;28.30;90.10;;;;;;5052328;28;20424;-71
2023/06/21 12:19:33;;;;;;;2.63;2.22;;;28.30;90.20;;;;;;5052893;28;20471;-73
2023/06/21 12:22:03;;;;;;;2.22;1.60;;;28.50;90.60;;;;;;5051238;28;20370;-72
2023/06/21 12:24:35;;;;;;;3.72;2.35;;;28.70;89.30;;;;;;5052208;28;20057;-71
2023/06/21 12:27:01;;;;;;;3.08;2.30;;;28.80;88.50;;;;;;5052520;28;20056;-73
2023/06/21 12:29:27;;;;;;;2.60;2.40;;;29.10;89.70;;;;;;5051033;28;20128;-72
2023/06/21 12:31:56;;;;;;;3.60;2.20;;;29.10;89.60;;;;;;5051709;28;20049;-72
2023/06/21 12:34:23;;;;;;;3.45;2.55;;;28.90;89.30;;;;;;5051655;28;20060;-71
2023/06/21 12:36:49;;;;;;;4.68;2.95;;;28.60;88.00;;;;;;5052534;28;20114;-71
2023/06/21 12:39:15;;;;;;;3.08;2.58;;;28.40;89.50;;;;;;5050878;28;20048;-73
2023/06/21 12:41:43;;;;;;;2.47;2.10;;;28.40;89.10;;;;;;5052569;28;20157;-72
2023/06/21 12:44:23;;;;;;;3.67;2.90;;;28.70;90.10;;;;;;5018260;28;20109;-73